createdAt,value
2017-01-23T00:00:00.672Z,0
2017-01-23T00:01:00.730Z,0
2017-01-23T00:02:00.869Z,0
2017-01-23T00:03:00.918Z,0
2017-01-23T00:04:00.857Z,0
2017-01-23T00:05:00.918Z,0
2017-01-23T00:06:00.711Z,0
2017-01-23T00:07:00.663Z,0
2017-01-23T00:08:00.855Z,0
2017-01-23T00:09:00.857Z,0
2017-01-23T00:10:00.799Z,0
2017-01-23T00:11:00.711Z,0
2017-01-23T00:12:00.745Z,0
2017-01-23T00:13:00.649Z,0
2017-01-23T00:14:00.714Z,0
2017-01-23T00:15:00.723Z,0
2017-01-23T00:16:00.844Z,0
2017-01-23T00:17:00.809Z,0
2017-01-23T00:18:00.799Z,0
2017-01-23T00:19:00.630Z,0
2017-01-23T00:20:00.719Z,0
2017-01-23T00:21:00.657Z,0
2017-01-23T00:22:00.652Z,0
2017-01-23T00:23:00.803Z,0
2017-01-23T00:24:00.645Z,0
2017-01-23T00:25:00.670Z,0
2017-01-23T00:26:00.629Z,0
2017-01-23T00:27:00.664Z,0
2017-01-23T00:28:00.677Z,0
2017-01-23T00:29:00.680Z,0
2017-01-23T00:30:00.765Z,0
2017-01-23T00:31:00.637Z,0
2017-01-23T00:32:00.755Z,0
2017-01-23T00:33:00.675Z,0
2017-01-23T00:34:00.633Z,0
2017-01-23T00:35:00.649Z,0
2017-01-23T00:36:00.843Z,0
2017-01-23T00:37:00.899Z,0
2017-01-23T00:38:00.653Z,0
2017-01-23T00:39:00.636Z,0
2017-01-23T00:40:00.964Z,0
2017-01-23T00:41:00.761Z,0
2017-01-23T00:42:00.681Z,0
2017-01-23T00:43:00.655Z,0
2017-01-23T00:44:00.933Z,0
2017-01-23T00:45:00.851Z,0
2017-01-23T00:46:00.701Z,0
2017-01-23T00:47:00.654Z,0
2017-01-23T00:48:00.754Z,0
2017-01-23T00:49:00.797Z,0
2017-01-23T00:50:00.971Z,0
2017-01-23T00:51:00.847Z,0
2017-01-23T00:52:00.705Z,0
2017-01-23T00:53:00.657Z,0
2017-01-23T00:54:00.710Z,0
2017-01-23T00:55:00.633Z,0
2017-01-23T00:56:00.695Z,0
2017-01-23T00:57:00.718Z,0
2017-01-23T00:58:00.709Z,0
2017-01-23T00:59:00.775Z,0
2017-01-23T01:00:00.719Z,0
2017-01-23T01:01:00.674Z,0
2017-01-23T01:02:00.659Z,0
2017-01-23T01:03:00.635Z,0
2017-01-23T01:04:00.766Z,0
2017-01-23T01:05:00.678Z,0
2017-01-23T01:06:00.745Z,0
2017-01-23T01:07:00.678Z,0
2017-01-23T01:08:00.812Z,0
2017-01-23T01:09:00.703Z,0
2017-01-23T01:10:00.749Z,0
2017-01-23T01:11:00.677Z,0
2017-01-23T01:12:00.864Z,0
2017-01-23T01:13:00.898Z,0
2017-01-23T01:14:00.668Z,0
2017-01-23T01:15:00.658Z,0
2017-01-23T01:16:00.649Z,0
2017-01-23T01:17:00.662Z,0
2017-01-23T01:18:00.682Z,0
2017-01-23T01:19:00.647Z,0
2017-01-23T01:20:00.664Z,0
2017-01-23T01:21:00.805Z,0
2017-01-23T01:22:00.665Z,0
2017-01-23T01:23:00.661Z,0
2017-01-23T01:24:00.654Z,0
2017-01-23T01:25:00.671Z,0
2017-01-23T01:26:00.679Z,0
2017-01-23T01:27:00.675Z,0
2017-01-23T01:28:00.646Z,0
2017-01-23T01:29:00.788Z,0
2017-01-23T01:30:00.646Z,0
2017-01-23T01:31:00.786Z,0
2017-01-23T01:32:00.968Z,0
2017-01-23T01:33:00.795Z,0
2017-01-23T01:34:00.720Z,0
2017-01-23T01:35:00.678Z,0
2017-01-23T01:36:00.672Z,0
2017-01-23T01:37:00.708Z,0
2017-01-23T01:38:00.674Z,0
2017-01-23T01:39:00.754Z,0
2017-01-23T01:40:00.674Z,0
2017-01-23T01:41:00.774Z,0
2017-01-23T01:42:00.688Z,0
2017-01-23T01:43:00.667Z,0
2017-01-23T01:44:00.688Z,0
2017-01-23T01:45:00.780Z,0
2017-01-23T01:46:00.827Z,0
2017-01-23T01:47:00.692Z,0
2017-01-23T01:48:00.702Z,0
2017-01-23T01:49:00.681Z,0
2017-01-23T01:50:00.697Z,0
2017-01-23T01:51:00.677Z,0
2017-01-23T01:52:00.684Z,0
2017-01-23T01:53:00.691Z,0
2017-01-23T01:54:00.778Z,0
2017-01-23T01:55:00.715Z,0
2017-01-23T01:56:00.741Z,0
2017-01-23T01:57:00.672Z,0
2017-01-23T01:58:00.698Z,0
2017-01-23T01:59:00.860Z,0
2017-01-23T02:00:00.690Z,0
2017-01-23T02:01:00.874Z,0
2017-01-23T02:02:00.674Z,0
2017-01-23T02:03:00.680Z,0
2017-01-23T02:04:00.709Z,0
2017-01-23T02:05:00.675Z,0
2017-01-23T02:06:00.680Z,0
2017-01-23T02:07:00.844Z,0
2017-01-23T02:08:00.692Z,0
2017-01-23T02:09:00.689Z,0
2017-01-23T02:10:00.675Z,0
2017-01-23T02:11:00.678Z,0
2017-01-23T02:12:00.732Z,0
2017-01-23T02:13:00.694Z,0
2017-01-23T02:14:00.741Z,0
2017-01-23T02:15:00.852Z,0
2017-01-23T02:16:00.684Z,0
2017-01-23T02:17:00.703Z,0
2017-01-23T02:18:00.719Z,0
2017-01-23T02:19:00.679Z,0
2017-01-23T02:20:00.691Z,0
2017-01-23T02:21:00.691Z,0
2017-01-23T02:22:00.740Z,0
2017-01-23T02:23:00.756Z,0
2017-01-23T02:24:00.686Z,0
2017-01-23T02:25:00.733Z,0
2017-01-23T02:26:00.734Z,0
2017-01-23T02:27:00.721Z,0
2017-01-23T02:28:00.689Z,0
2017-01-23T02:29:00.693Z,0
2017-01-23T02:30:00.699Z,0
2017-01-23T02:31:00.783Z,0
2017-01-23T02:32:00.737Z,0
2017-01-23T02:33:00.703Z,0
2017-01-23T02:34:00.713Z,0
2017-01-23T02:35:00.779Z,0
2017-01-23T02:36:00.831Z,0
2017-01-23T02:37:00.762Z,0
2017-01-23T02:38:00.693Z,0
2017-01-23T02:39:00.912Z,0
2017-01-23T02:40:00.766Z,0
2017-01-23T02:41:00.694Z,0
2017-01-23T02:42:00.719Z,0
2017-01-23T02:43:00.717Z,0
2017-01-23T02:44:00.731Z,0
2017-01-23T02:45:00.713Z,0
2017-01-23T02:46:00.705Z,0
2017-01-23T02:47:00.723Z,0
2017-01-23T02:48:00.708Z,0
2017-01-23T02:49:00.728Z,0
2017-01-23T02:50:00.798Z,0
2017-01-23T02:51:00.721Z,0
2017-01-23T02:52:00.737Z,0
2017-01-23T02:53:00.700Z,0
2017-01-23T02:54:00.842Z,0
2017-01-23T02:55:00.730Z,0
2017-01-23T02:56:00.758Z,0
2017-01-23T02:57:00.772Z,0
2017-01-23T02:58:00.834Z,0
2017-01-23T02:59:00.705Z,0
2017-01-23T03:00:00.708Z,0
2017-01-23T03:01:00.706Z,0
2017-01-23T03:02:00.725Z,0
2017-01-23T03:03:00.715Z,0
2017-01-23T03:04:00.763Z,0
2017-01-23T03:05:00.792Z,0
2017-01-23T03:06:00.755Z,0
2017-01-23T03:07:00.712Z,0
2017-01-23T03:08:00.720Z,0
2017-01-23T03:09:00.709Z,0
2017-01-23T03:10:00.725Z,0
2017-01-23T03:11:00.722Z,0
2017-01-23T03:12:00.753Z,0
2017-01-23T03:13:00.716Z,0
2017-01-23T03:14:00.807Z,0
2017-01-23T03:15:00.706Z,0
2017-01-23T03:16:00.746Z,0
2017-01-23T03:17:00.750Z,0
2017-01-23T03:18:00.731Z,0
2017-01-23T03:19:00.724Z,0
2017-01-23T03:20:00.723Z,0
2017-01-23T03:21:00.726Z,0
2017-01-23T03:22:00.728Z,0
2017-01-23T03:23:00.721Z,0
2017-01-23T03:24:00.730Z,0
2017-01-23T03:25:00.721Z,0
2017-01-23T03:26:00.786Z,0
2017-01-23T03:27:00.738Z,0
2017-01-23T03:28:00.723Z,0
2017-01-23T03:29:00.721Z,0
2017-01-23T03:30:00.742Z,0
2017-01-23T03:31:00.725Z,0
2017-01-23T03:32:00.728Z,0
2017-01-23T03:33:00.748Z,0
2017-01-23T03:34:00.762Z,0
2017-01-23T03:35:00.738Z,0
2017-01-23T03:36:00.738Z,0
2017-01-23T03:37:00.744Z,0
2017-01-23T03:38:00.740Z,0
2017-01-23T03:39:00.718Z,0
2017-01-23T03:40:00.737Z,0
2017-01-23T03:41:00.748Z,0
2017-01-23T03:42:00.735Z,0
2017-01-23T03:43:00.740Z,0
2017-01-23T03:44:00.748Z,0
2017-01-23T03:45:00.745Z,0
2017-01-23T03:46:00.733Z,0
2017-01-23T03:47:00.738Z,0
2017-01-23T03:48:00.728Z,0
2017-01-23T03:49:00.750Z,0
2017-01-23T03:50:00.748Z,0
2017-01-23T03:51:00.750Z,0
2017-01-23T03:52:00.772Z,0
2017-01-23T03:53:00.740Z,0
2017-01-23T03:54:00.750Z,0
2017-01-23T03:55:00.749Z,0
2017-01-23T03:56:00.746Z,0
2017-01-23T03:57:00.783Z,0
2017-01-23T03:58:00.750Z,0
2017-01-23T03:59:00.739Z,0
2017-01-23T04:00:00.753Z,0
2017-01-23T04:01:00.738Z,0
2017-01-23T04:02:00.744Z,0
2017-01-23T04:03:00.743Z,0
2017-01-23T04:04:00.729Z,0
2017-01-23T04:05:00.759Z,0
2017-01-23T04:06:00.768Z,0
2017-01-23T04:07:00.747Z,0
2017-01-23T04:08:00.783Z,0
2017-01-23T04:09:00.778Z,0
2017-01-23T04:10:00.755Z,0
2017-01-23T04:11:00.731Z,0
2017-01-23T04:12:00.766Z,0
2017-01-23T04:13:00.756Z,0
2017-01-23T04:14:00.755Z,0
2017-01-23T04:15:00.761Z,0
2017-01-23T04:16:00.782Z,0
2017-01-23T04:17:00.760Z,0
2017-01-23T04:18:00.758Z,0
2017-01-23T04:19:00.753Z,0
2017-01-23T04:20:00.759Z,0
2017-01-23T04:21:00.768Z,0
2017-01-23T04:22:00.757Z,0
2017-01-23T04:23:00.758Z,0
2017-01-23T04:24:00.761Z,0
2017-01-23T04:25:00.770Z,0
2017-01-23T04:26:00.767Z,0
2017-01-23T04:27:00.775Z,0
2017-01-23T04:28:00.759Z,0
2017-01-23T04:29:00.773Z,0
2017-01-23T04:30:00.759Z,0
2017-01-23T04:31:00.765Z,0
2017-01-23T04:32:00.849Z,0
2017-01-23T04:33:00.767Z,0
2017-01-23T04:34:00.766Z,0
2017-01-23T04:35:00.766Z,0
2017-01-23T04:36:00.771Z,0
2017-01-23T04:37:00.772Z,0
2017-01-23T04:38:00.777Z,0
2017-01-23T04:39:00.774Z,0
2017-01-23T04:40:00.795Z,0
2017-01-23T04:41:00.772Z,0
2017-01-23T04:42:00.782Z,0
2017-01-23T04:43:00.771Z,0
2017-01-23T04:44:00.779Z,0
2017-01-23T04:45:00.819Z,0
2017-01-23T04:46:00.777Z,0
2017-01-23T04:47:00.784Z,0
2017-01-23T04:48:00.811Z,0
2017-01-23T04:49:00.801Z,0
2017-01-23T04:50:00.809Z,0
2017-01-23T04:51:00.825Z,0
2017-01-23T04:52:00.806Z,0
2017-01-23T04:53:00.795Z,0
2017-01-23T04:54:00.809Z,0
2017-01-23T04:55:00.833Z,0
2017-01-23T04:56:00.786Z,0
2017-01-23T04:57:00.822Z,0
2017-01-23T04:58:00.806Z,0
2017-01-23T04:59:00.801Z,0
2017-01-23T05:00:00.825Z,0
2017-01-23T05:01:00.837Z,0
2017-01-23T05:02:00.834Z,0
2017-01-23T05:03:00.817Z,0
2017-01-23T05:04:00.815Z,0
2017-01-23T05:05:00.791Z,0
2017-01-23T05:06:00.784Z,0
2017-01-23T05:07:00.777Z,0
2017-01-23T05:08:00.791Z,0
2017-01-23T05:09:00.772Z,0
2017-01-23T05:10:00.812Z,0
2017-01-23T05:11:00.775Z,0
2017-01-23T05:12:00.777Z,0
2017-01-23T05:13:00.805Z,0
2017-01-23T05:14:00.804Z,0
2017-01-23T05:15:00.786Z,0
2017-01-23T05:16:00.812Z,0
2017-01-23T05:17:00.783Z,0
2017-01-23T05:18:00.781Z,0
2017-01-23T05:19:00.785Z,0
2017-01-23T05:20:00.786Z,0
2017-01-23T05:21:00.810Z,0
2017-01-23T05:22:00.824Z,0
2017-01-23T05:23:00.781Z,0
2017-01-23T05:24:00.813Z,0
2017-01-23T05:25:00.795Z,0
2017-01-23T05:26:00.799Z,0
2017-01-23T05:27:00.835Z,0
2017-01-23T05:28:00.815Z,0
2017-01-23T05:29:00.791Z,0
2017-01-23T05:30:00.829Z,0
2017-01-23T05:31:00.819Z,0
2017-01-23T05:32:00.819Z,0
2017-01-23T05:33:00.811Z,0
2017-01-23T05:34:00.810Z,0
2017-01-23T05:35:00.813Z,0
2017-01-23T05:36:00.830Z,0
2017-01-23T05:37:00.803Z,0
2017-01-23T05:38:00.857Z,0
2017-01-23T05:39:00.805Z,0
2017-01-23T05:40:00.792Z,0
2017-01-23T05:41:00.794Z,0
2017-01-23T05:42:00.803Z,0
2017-01-23T05:43:00.805Z,0
2017-01-23T05:44:00.813Z,0
2017-01-23T05:45:00.814Z,0
2017-01-23T05:46:00.852Z,0
2017-01-23T05:47:00.822Z,0
2017-01-23T05:48:00.812Z,0
2017-01-23T05:49:00.821Z,0
2017-01-23T05:50:00.802Z,0
2017-01-23T05:51:00.830Z,0
2017-01-23T05:52:00.795Z,0
2017-01-23T05:53:00.813Z,0
2017-01-23T05:54:00.818Z,0
2017-01-23T05:55:00.814Z,0
2017-01-23T05:56:00.836Z,0
2017-01-23T05:57:00.829Z,0
2017-01-23T05:58:00.847Z,0
2017-01-23T05:59:00.810Z,0
2017-01-23T06:00:00.828Z,0
2017-01-23T06:01:00.820Z,0
2017-01-23T06:02:00.840Z,0
2017-01-23T06:03:00.802Z,0
2017-01-23T06:04:00.823Z,0
2017-01-23T06:05:00.815Z,0
2017-01-23T06:06:00.835Z,0
2017-01-23T06:07:00.849Z,0
2017-01-23T06:08:00.821Z,0
2017-01-23T06:09:00.823Z,0
2017-01-23T06:10:00.846Z,0
2017-01-23T06:11:00.828Z,0
2017-01-23T06:12:00.833Z,0
2017-01-23T06:13:00.830Z,0
2017-01-23T06:14:00.876Z,0
2017-01-23T06:15:00.836Z,0
2017-01-23T06:16:00.845Z,0
2017-01-23T06:17:00.837Z,0
2017-01-23T06:18:00.829Z,0
2017-01-23T06:19:00.838Z,0
2017-01-23T06:20:00.853Z,0
2017-01-23T06:21:00.815Z,0
2017-01-23T06:22:00.823Z,0
2017-01-23T06:23:00.859Z,0
2017-01-23T06:24:00.859Z,0
2017-01-23T06:25:00.840Z,0
2017-01-23T06:26:00.853Z,0
2017-01-23T06:27:00.831Z,0
2017-01-23T06:28:00.851Z,0
2017-01-23T06:29:00.845Z,0
2017-01-23T06:30:00.835Z,0
2017-01-23T06:31:00.846Z,0
2017-01-23T06:32:00.834Z,0
2017-01-23T06:33:00.816Z,0
2017-01-23T06:34:00.835Z,0
2017-01-23T06:35:00.828Z,0
2017-01-23T06:36:00.923Z,0
2017-01-23T06:37:00.885Z,0
2017-01-23T06:38:00.815Z,0
2017-01-23T06:39:00.862Z,0
2017-01-23T06:40:00.858Z,0
2017-01-23T06:41:00.846Z,0
2017-01-23T06:42:00.859Z,0
2017-01-23T06:43:00.843Z,0
2017-01-23T06:44:00.837Z,0
2017-01-23T06:45:00.840Z,0
2017-01-23T06:46:00.936Z,4
2017-01-23T06:47:00.851Z,4
2017-01-23T06:48:00.862Z,4
2017-01-23T06:49:00.860Z,0
2017-01-23T06:50:00.859Z,0
2017-01-23T06:51:00.838Z,4
2017-01-23T06:52:00.841Z,4
2017-01-23T06:53:00.842Z,4
2017-01-23T06:54:00.851Z,4
2017-01-23T06:55:00.859Z,4
2017-01-23T06:56:00.859Z,4
2017-01-23T06:57:00.837Z,8
2017-01-23T06:58:00.841Z,8
2017-01-23T06:59:00.836Z,8
2017-01-23T07:00:00.847Z,8
2017-01-23T07:01:00.859Z,8
2017-01-23T07:02:00.847Z,12
2017-01-23T07:03:00.888Z,12
2017-01-23T07:04:00.875Z,16
2017-01-23T07:05:00.837Z,20
2017-01-23T07:06:00.829Z,20
2017-01-23T07:07:00.854Z,24
2017-01-23T07:08:00.840Z,24
2017-01-23T07:09:00.868Z,28
2017-01-23T07:10:00.855Z,32
2017-01-23T07:11:00.855Z,36
2017-01-23T07:12:00.857Z,44
2017-01-23T07:13:00.849Z,48
2017-01-23T07:14:00.857Z,52
2017-01-23T07:15:00.857Z,56
2017-01-23T07:16:00.870Z,60
2017-01-23T07:17:00.852Z,64
2017-01-23T07:18:00.876Z,68
2017-01-23T07:19:00.912Z,76
2017-01-23T07:20:00.902Z,84
2017-01-23T07:21:00.867Z,92
2017-01-23T07:22:00.879Z,100
2017-01-23T07:23:00.891Z,112
2017-01-23T07:24:00.867Z,120
2017-01-23T07:25:00.867Z,136
2017-01-23T07:26:00.890Z,144
2017-01-23T07:27:00.882Z,156
2017-01-23T07:28:00.870Z,168
2017-01-23T07:29:00.867Z,180
2017-01-23T07:30:00.888Z,200
2017-01-23T07:31:00.873Z,204
2017-01-23T07:32:00.884Z,220
2017-01-23T07:33:00.907Z,232
2017-01-23T07:34:00.897Z,248
2017-01-23T07:35:00.982Z,260
2017-01-23T07:36:00.927Z,264
2017-01-23T07:37:00.889Z,264
2017-01-23T07:38:00.977Z,288
2017-01-23T07:39:00.892Z,272
2017-01-23T07:40:00.892Z,268
2017-01-23T07:41:00.923Z,276
2017-01-23T07:42:00.886Z,292
2017-01-23T07:43:00.961Z,280
2017-01-23T07:44:00.866Z,280
2017-01-23T07:45:00.968Z,284
2017-01-23T07:46:00.923Z,308
2017-01-23T07:47:00.930Z,332
2017-01-23T07:48:01.268Z,352
2017-01-23T07:49:01.004Z,376
2017-01-23T07:50:00.878Z,392
2017-01-23T07:51:00.919Z,408
2017-01-23T07:52:00.957Z,432
2017-01-23T07:53:00.915Z,448
2017-01-23T07:54:00.867Z,464
2017-01-23T07:55:02.137Z,476
2017-01-23T07:56:01.849Z,504
2017-01-23T07:57:00.895Z,516
2017-01-23T07:58:00.897Z,528
2017-01-23T07:59:00.962Z,516
2017-01-23T08:00:00.914Z,504
2017-01-23T08:01:00.924Z,500
2017-01-23T08:02:00.903Z,548
2017-01-23T08:03:00.922Z,608
2017-01-23T08:04:01.010Z,656
2017-01-23T08:05:00.928Z,628
2017-01-23T08:06:00.928Z,592
2017-01-23T08:07:00.925Z,568
2017-01-23T08:08:00.905Z,608
2017-01-23T08:09:00.929Z,696
2017-01-23T08:10:00.934Z,724
2017-01-23T08:11:00.955Z,692
2017-01-23T08:12:01.053Z,676
2017-01-23T08:13:00.906Z,676
2017-01-23T08:14:00.941Z,688
2017-01-23T08:15:00.889Z,708
2017-01-23T08:16:00.938Z,704
2017-01-23T08:17:00.882Z,688
2017-01-23T08:18:00.911Z,676
2017-01-23T08:19:00.858Z,668
2017-01-23T08:20:00.926Z,652
2017-01-23T08:21:00.888Z,656
2017-01-23T08:22:00.905Z,676
2017-01-23T08:23:01.075Z,668
2017-01-23T08:24:00.895Z,676
2017-01-23T08:25:00.911Z,708
2017-01-23T08:26:00.934Z,728
2017-01-23T08:27:00.996Z,696
2017-01-23T08:28:00.906Z,696
2017-01-23T08:29:00.892Z,708
2017-01-23T08:30:00.902Z,780
2017-01-23T08:31:01.047Z,868
2017-01-23T08:32:01.012Z,920
2017-01-23T08:33:00.941Z,1020
2017-01-23T08:34:00.910Z,1120
2017-01-23T08:35:00.956Z,1068
2017-01-23T08:36:00.907Z,1012
2017-01-23T08:37:00.915Z,1016
2017-01-23T08:38:00.921Z,904
2017-01-23T08:39:00.926Z,864
2017-01-23T08:40:00.928Z,820
2017-01-23T08:41:00.948Z,868
2017-01-23T08:42:00.894Z,1120
2017-01-23T08:43:00.940Z,1344
2017-01-23T08:44:00.901Z,1400
2017-01-23T08:45:00.919Z,1396
2017-01-23T08:46:01.038Z,1408
2017-01-23T08:47:00.905Z,1464
2017-01-23T08:48:00.937Z,1540
2017-01-23T08:49:00.903Z,1580
2017-01-23T08:50:01.000Z,1676
2017-01-23T08:51:00.975Z,1728
2017-01-23T08:52:00.919Z,1728
2017-01-23T08:53:01.165Z,1724
2017-01-23T08:54:01.026Z,1712
2017-01-23T08:55:01.003Z,1740
2017-01-23T08:56:00.975Z,1784
2017-01-23T08:57:00.918Z,1808
2017-01-23T08:58:00.950Z,1852
2017-01-23T08:59:00.907Z,1964
2017-01-23T09:00:00.926Z,2044
2017-01-23T09:01:00.916Z,2044
2017-01-23T09:02:00.961Z,2024
2017-01-23T09:03:00.964Z,2056
2017-01-23T09:04:00.975Z,2092
2017-01-23T09:05:00.953Z,2192
2017-01-23T09:06:00.990Z,2204
2017-01-23T09:07:00.921Z,2196
2017-01-23T09:08:00.954Z,2144
2017-01-23T09:09:01.198Z,2012
2017-01-23T09:10:01.007Z,2292
2017-01-23T09:11:00.927Z,2344
2017-01-23T09:12:00.923Z,2284
2017-01-23T09:13:00.927Z,2192
2017-01-23T09:14:00.967Z,2076
2017-01-23T09:15:01.035Z,2124
2017-01-23T09:16:00.975Z,2136
2017-01-23T09:17:01.028Z,2116
2017-01-23T09:18:01.055Z,2144
2017-01-23T09:19:00.929Z,2128
2017-01-23T09:20:00.930Z,2024
2017-01-23T09:21:00.981Z,2028
2017-01-23T09:22:01.033Z,2180
2017-01-23T09:23:00.972Z,2260
2017-01-23T09:24:00.972Z,2280
2017-01-23T09:25:00.973Z,2276
2017-01-23T09:26:00.906Z,2348
2017-01-23T09:27:00.945Z,2428
2017-01-23T09:28:00.958Z,2552
2017-01-23T09:29:00.927Z,2632
2017-01-23T09:30:00.940Z,2640
2017-01-23T09:31:00.958Z,2648
2017-01-23T09:32:00.935Z,2660
2017-01-23T09:33:01.034Z,2756
2017-01-23T09:34:00.937Z,2784
2017-01-23T09:35:01.066Z,2740
2017-01-23T09:36:00.940Z,2584
2017-01-23T09:37:01.019Z,2532
2017-01-23T09:38:00.937Z,2620
2017-01-23T09:39:00.984Z,2788
2017-01-23T09:40:00.963Z,3020
2017-01-23T09:41:01.051Z,3140
2017-01-23T09:42:01.005Z,3180
2017-01-23T09:43:00.960Z,3304
2017-01-23T09:44:00.951Z,3392
2017-01-23T09:45:00.956Z,3396
2017-01-23T09:46:00.937Z,3372
2017-01-23T09:47:00.947Z,3204
2017-01-23T09:48:00.955Z,3092
2017-01-23T09:49:01.007Z,3116
2017-01-23T09:50:00.946Z,2872
2017-01-23T09:51:00.941Z,2796
2017-01-23T09:52:01.024Z,2552
2017-01-23T09:53:00.999Z,2392
2017-01-23T09:54:01.003Z,2616
2017-01-23T09:55:01.023Z,2660
2017-01-23T09:56:00.951Z,2216
2017-01-23T09:57:01.023Z,2144
2017-01-23T09:58:01.057Z,2080
2017-01-23T09:59:00.957Z,1988
2017-01-23T10:00:00.997Z,1924
2017-01-23T10:01:00.973Z,1924
2017-01-23T10:02:00.943Z,1964
2017-01-23T10:03:00.974Z,2096
2017-01-23T10:04:00.963Z,2340
2017-01-23T10:05:01.017Z,2852
2017-01-23T10:06:01.010Z,3012
2017-01-23T10:07:01.005Z,2712
2017-01-23T10:08:00.960Z,2748
2017-01-23T10:09:00.956Z,2964
2017-01-23T10:10:00.963Z,3180
2017-01-23T10:11:00.964Z,3532
2017-01-23T10:12:00.966Z,3560
2017-01-23T10:13:00.969Z,3232
2017-01-23T10:14:00.945Z,3408
2017-01-23T10:15:00.960Z,3212
2017-01-23T10:22:26.279Z,3764
2017-01-23T10:22:36.309Z,3820
2017-01-23T10:23:36.304Z,3904
2017-01-23T10:24:36.286Z,3900
2017-01-23T10:25:36.288Z,3992
2017-01-23T10:26:36.368Z,4048
2017-01-23T10:27:36.333Z,4112
2017-01-23T10:28:36.336Z,4092
2017-01-23T10:29:36.316Z,4172
2017-01-23T10:30:36.292Z,4268
2017-01-23T10:31:36.301Z,4480
2017-01-23T10:32:36.293Z,4368
2017-01-23T10:33:36.327Z,4296
2017-01-23T10:34:36.305Z,4244
2017-01-23T10:35:36.258Z,4308
2017-01-23T10:36:36.381Z,4500
2017-01-23T10:37:36.310Z,5112
2017-01-23T10:38:36.351Z,5372
2017-01-23T10:39:36.317Z,5444
2017-01-23T10:40:36.302Z,5336
2017-01-23T10:41:36.286Z,5016
2017-01-23T10:42:36.292Z,5148
2017-01-23T10:43:36.397Z,4804
2017-01-23T10:44:36.404Z,4592
2017-01-23T10:45:36.307Z,4632
2017-01-23T10:46:36.332Z,4708
2017-01-23T10:47:36.324Z,5100
2017-01-23T10:48:36.342Z,5040
2017-01-23T10:49:36.305Z,4868
2017-01-23T10:50:36.296Z,4416
2017-01-23T10:51:36.302Z,4160
2017-01-23T10:52:36.325Z,3828
2017-01-23T10:53:36.287Z,4096
2017-01-23T10:54:36.309Z,4696
2017-01-23T10:55:36.298Z,5360
2017-01-23T10:56:36.357Z,5276
2017-01-23T10:57:36.303Z,4948
2017-01-23T10:58:36.325Z,4520
2017-01-23T10:59:36.288Z,3904
2017-01-23T11:00:36.335Z,4092
2017-01-23T11:01:36.312Z,4552
2017-01-23T11:02:36.321Z,5040
2017-01-23T11:03:36.329Z,5248
2017-01-23T11:04:36.294Z,5236
2017-01-23T11:05:36.327Z,5160
2017-01-23T11:06:36.347Z,5100
2017-01-23T11:07:36.323Z,4732
2017-01-23T11:08:36.316Z,4640
2017-01-23T11:09:36.321Z,4612
2017-01-23T11:10:36.315Z,4684
2017-01-23T11:11:36.328Z,4216
2017-01-23T11:12:36.325Z,4576
2017-01-23T11:13:36.349Z,4404
2017-01-23T11:14:36.318Z,4448
2017-01-23T11:15:36.316Z,4580
2017-01-23T11:16:36.319Z,4508
2017-01-23T11:17:37.242Z,4568
2017-01-23T11:18:36.422Z,4704
2017-01-23T11:19:36.338Z,4596
2017-01-23T11:20:36.314Z,4484
2017-01-23T11:21:36.324Z,4564
2017-01-23T11:22:36.325Z,4336
2017-01-23T11:23:36.301Z,4072
2017-01-23T11:24:36.320Z,4036
2017-01-23T11:25:36.323Z,4232
2017-01-23T11:26:36.334Z,4512
2017-01-23T11:27:36.356Z,4392
2017-01-23T11:28:36.318Z,4108
2017-01-23T11:29:36.332Z,3956
2017-01-23T11:30:36.346Z,4016
2017-01-23T11:31:36.306Z,3920
2017-01-23T11:32:36.319Z,3944
2017-01-23T11:33:36.359Z,3988
2017-01-23T11:34:36.338Z,4100
2017-01-23T11:35:36.372Z,4332
2017-01-23T11:36:36.329Z,4204
2017-01-23T11:37:36.337Z,3148
2017-01-23T11:38:36.344Z,4056
2017-01-23T11:39:36.323Z,4120
2017-01-23T11:40:36.356Z,4036
2017-01-23T11:41:36.315Z,3872
2017-01-23T11:42:36.334Z,3948
2017-01-23T11:43:36.362Z,4348
2017-01-23T11:44:36.345Z,4592
2017-01-23T11:45:36.327Z,4420
2017-01-23T11:46:36.343Z,4420
2017-01-23T11:47:36.362Z,4436
2017-01-23T11:48:36.368Z,4532
2017-01-23T11:49:36.334Z,4276
2017-01-23T11:50:36.429Z,4236
2017-01-23T11:51:36.341Z,4236
2017-01-23T11:52:36.336Z,4408
2017-01-23T11:53:36.342Z,4468
2017-01-23T11:54:36.312Z,4544
2017-01-23T11:55:36.341Z,4564
2017-01-23T11:56:36.347Z,4468
2017-01-23T11:57:36.356Z,4360
2017-01-23T11:58:36.333Z,4180
2017-01-23T11:59:36.356Z,4356
2017-01-23T12:00:36.361Z,4484
2017-01-23T12:01:36.345Z,4424
2017-01-23T12:02:36.420Z,4504
2017-01-23T12:03:36.339Z,4448
2017-01-23T12:04:36.354Z,4396
2017-01-23T12:05:36.362Z,4456
2017-01-23T12:06:36.458Z,4616
2017-01-23T12:07:36.390Z,4564
2017-01-23T12:08:36.365Z,4496
2017-01-23T12:09:36.346Z,4340
2017-01-23T12:10:36.378Z,4372
2017-01-23T12:11:36.385Z,4396
2017-01-23T12:12:36.717Z,4360
2017-01-23T12:13:36.383Z,4592
2017-01-23T12:14:36.418Z,4816
2017-01-23T12:15:36.432Z,4724
2017-01-23T12:16:36.423Z,5016
2017-01-23T12:17:36.365Z,5236
2017-01-23T12:18:36.637Z,4800
2017-01-23T12:19:36.343Z,4600
2017-01-23T12:20:36.417Z,4760
2017-01-23T12:21:36.340Z,4688
2017-01-23T12:22:36.461Z,4592
2017-01-23T12:23:36.400Z,4444
2017-01-23T12:24:36.395Z,3948
2017-01-23T12:25:36.379Z,3628
2017-01-23T12:26:36.401Z,3976
2017-01-23T12:27:36.385Z,4460
2017-01-23T12:28:36.430Z,4432
2017-01-23T12:29:36.475Z,4408
2017-01-23T12:30:36.372Z,4072
2017-01-23T12:31:36.380Z,4256
2017-01-23T12:32:36.401Z,4180
2017-01-23T12:33:36.374Z,4056
2017-01-23T12:34:36.376Z,4072
2017-01-23T12:35:36.369Z,4208
2017-01-23T12:36:36.357Z,4608
2017-01-23T12:37:36.387Z,4472
2017-01-23T12:38:36.355Z,4556
2017-01-23T12:39:36.357Z,4464
2017-01-23T12:40:36.394Z,4280
2017-01-23T12:41:36.372Z,3976
2017-01-23T12:42:36.453Z,3800
2017-01-23T12:43:36.393Z,3776
2017-01-23T12:44:36.427Z,3560
2017-01-23T12:45:36.480Z,3428
2017-01-23T12:46:36.382Z,3508
2017-01-23T12:47:36.369Z,3376
2017-01-23T12:48:36.421Z,3440
2017-01-23T12:49:36.469Z,3312
2017-01-23T12:50:36.376Z,3372
2017-01-23T12:51:36.372Z,3644
2017-01-23T12:52:36.366Z,3820
2017-01-23T12:53:36.525Z,3888
2017-01-23T12:54:36.394Z,3840
2017-01-23T12:55:36.489Z,3948
2017-01-23T12:56:36.378Z,4144
2017-01-23T12:57:36.379Z,3808
2017-01-23T12:58:36.375Z,3300
2017-01-23T12:59:36.539Z,3260
2017-01-23T13:00:36.532Z,3532
2017-01-23T13:01:36.472Z,3672
2017-01-23T13:02:36.409Z,3716
2017-01-23T13:03:36.596Z,3408
2017-01-23T13:04:36.543Z,3292
2017-01-23T13:05:36.578Z,3396
2017-01-23T13:06:36.513Z,3508
2017-01-23T13:07:36.396Z,3660
2017-01-23T13:08:36.383Z,2976
2017-01-23T13:09:36.510Z,2548
2017-01-23T13:10:36.425Z,3292
2017-01-23T13:11:36.477Z,3124
2017-01-23T13:12:36.524Z,3664
2017-01-23T13:13:36.433Z,4044
2017-01-23T13:14:36.510Z,4208
2017-01-23T13:15:36.384Z,4344
2017-01-23T13:16:36.417Z,4104
2017-01-23T13:17:36.471Z,4080
2017-01-23T13:18:36.414Z,4200
2017-01-23T13:19:36.428Z,4256
2017-01-23T13:20:36.390Z,4148
2017-01-23T13:21:36.424Z,3964
2017-01-23T13:22:36.414Z,3652
2017-01-23T13:23:36.552Z,3428
2017-01-23T13:24:36.554Z,3340
2017-01-23T13:25:36.443Z,3612
2017-01-23T13:26:36.530Z,3812
2017-01-23T13:27:36.473Z,3716
2017-01-23T13:28:36.413Z,3396
2017-01-23T13:29:36.537Z,3092
2017-01-23T13:30:36.662Z,3168
2017-01-23T13:31:36.622Z,3524
2017-01-23T13:32:36.513Z,3428
2017-01-23T13:33:36.508Z,3500
2017-01-23T13:34:36.420Z,3632
2017-01-23T13:35:36.411Z,3664
2017-01-23T13:36:36.454Z,3560
2017-01-23T13:37:36.493Z,3376
2017-01-23T13:38:36.517Z,3096
2017-01-23T13:39:36.431Z,3276
2017-01-23T13:40:37.581Z,3044
2017-01-23T13:41:36.440Z,2984
2017-01-23T13:42:36.652Z,2956
2017-01-23T13:43:36.668Z,2668
2017-01-23T13:44:36.529Z,2856
2017-01-23T13:45:36.418Z,2932
2017-01-23T13:46:36.431Z,2848
2017-01-23T13:47:36.452Z,2632
2017-01-23T13:48:36.427Z,2544
2017-01-23T13:49:36.560Z,2748
2017-01-23T13:50:37.275Z,2784
2017-01-23T13:51:36.552Z,2804
2017-01-23T13:52:36.493Z,2816
2017-01-23T13:53:36.415Z,2672
2017-01-23T13:54:36.408Z,2780
2017-01-23T13:55:37.381Z,2680
2017-01-23T13:56:36.579Z,2676
2017-01-23T13:57:36.580Z,2660
2017-01-23T13:58:36.566Z,2624
2017-01-23T13:59:36.464Z,2564
2017-01-23T14:00:36.649Z,2580
2017-01-23T14:01:36.547Z,2764
2017-01-23T14:02:37.621Z,2616
2017-01-23T14:03:36.428Z,2596
2017-01-23T14:04:36.434Z,2620
2017-01-23T14:05:36.530Z,2608
2017-01-23T14:06:37.324Z,2552
2017-01-23T14:07:36.597Z,2572
2017-01-23T14:08:36.601Z,2492
2017-01-23T14:09:36.444Z,2532